sensor_id;sensor_type;location;lat;lon;timestamp;P1;durP1;ratioP1;P2;durP2;ratioP2
55186;SDS011;55457;52.002;5.464;2022-10-20T00:00:15;7.38;;;1.80;;
55186;SDS011;55457;52.002;5.464;2022-10-20T00:02:41;4.63;;;1.90;;
55186;SDS011;55457;52.002;5.464;2022-10-20T00:05:06;8.35;;;2.50;;
55186;SDS011;55457;52.002;5.464;2022-10-20T00:07:32;7.72;;;1.83;;
55186;SDS011;55457;52.002;5.464;2022-10-20T00:09:57;5.50;;;2.00;;
55186;SDS011;55457;52.002;5.464;2022-10-20T00:12:22;5.68;;;2.22;;
55186;SDS011;55457;52.002;5.464;2022-10-20T00:14:48;6.97;;;2.35;;
55186;SDS011;55457;52.002;5.464;2022-10-20T00:17:13;3.92;;;1.70;;
55186;SDS011;55457;52.002;5.464;2022-10-20T00:19:38;3.58;;;1.83;;
55186;SDS011;55457;52.002;5.464;2022-10-20T00:22:04;2.95;;;1.83;;
55186;SDS011;55457;52.002;5.464;2022-10-20T00:24:29;5.32;;;2.17;;
55186;SDS011;55457;52.002;5.464;2022-10-20T00:26:54;3.03;;;2.05;;
55186;SDS011;55457;52.002;5.464;2022-10-20T00:29:19;2.08;;;1.63;;
55186;SDS011;55457;52.002;5.464;2022-10-20T00:31:45;4.13;;;2.05;;
55186;SDS011;55457;52.002;5.464;2022-10-20T00:34:10;4.25;;;2.15;;
55186;SDS011;55457;52.002;5.464;2022-10-20T00:36:35;4.70;;;1.80;;
55186;SDS011;55457;52.002;5.464;2022-10-20T00:39:02;3.80;;;2.03;;
55186;SDS011;55457;52.002;5.464;2022-10-20T00:41:29;5.13;;;2.10;;
55186;SDS011;55457;52.002;5.464;2022-10-20T00:43:58;3.53;;;1.73;;
55186;SDS011;55457;52.002;5.464;2022-10-20T00:46:27;8.20;;;3.17;;
55186;SDS011;55457;52.002;5.464;2022-10-20T00:48:59;5.28;;;1.75;;
55186;SDS011;55457;52.002;5.464;2022-10-20T00:51:30;2.40;;;2.00;;
55186;SDS011;55457;52.002;5.464;2022-10-20T00:53:59;5.28;;;2.42;;
55186;SDS011;55457;52.002;5.464;2022-10-20T00:56:30;5.57;;;1.92;;
55186;SDS011;55457;52.002;5.464;2022-10-20T00:58:56;2.85;;;1.80;;
55186;SDS011;55457;52.002;5.464;2022-10-20T01:01:22;3.85;;;1.70;;
55186;SDS011;55457;52.002;5.464;2022-10-20T01:03:48;2.85;;;1.73;;
55186;SDS011;55457;52.002;5.464;2022-10-20T01:06:15;2.50;;;1.65;;
55186;SDS011;55457;52.002;5.464;2022-10-20T01:08:43;4.85;;;2.03;;
55186;SDS011;55457;52.002;5.464;2022-10-20T01:27:47;6.35;;;2.00;;
55186;SDS011;55457;52.002;5.464;2022-10-20T01:30:22;4.50;;;2.20;;
55186;SDS011;55457;52.002;5.464;2022-10-20T01:32:53;4.97;;;1.98;;
55186;SDS011;55457;52.002;5.464;2022-10-20T01:38:27;3.22;;;1.63;;
55186;SDS011;55457;52.002;5.464;2022-10-20T01:41:02;5.82;;;2.50;;
55186;SDS011;55457;52.002;5.464;2022-10-20T01:43:36;5.80;;;2.17;;
55186;SDS011;55457;52.002;5.464;2022-10-20T01:46:04;1.85;;;1.50;;
55186;SDS011;55457;52.002;5.464;2022-10-20T01:48:33;4.53;;;1.88;;
55186;SDS011;55457;52.002;5.464;2022-10-20T01:50:59;5.25;;;2.67;;
55186;SDS011;55457;52.002;5.464;2022-10-20T01:53:27;5.10;;;2.78;;
55186;SDS011;55457;52.002;5.464;2022-10-20T01:55:52;4.32;;;2.60;;
55186;SDS011;55457;52.002;5.464;2022-10-20T02:03:55;3.97;;;2.03;;
55186;SDS011;55457;52.002;5.464;2022-10-20T02:06:29;4.68;;;2.25;;
55186;SDS011;55457;52.002;5.464;2022-10-20T02:09:05;4.10;;;2.30;;
55186;SDS011;55457;52.002;5.464;2022-10-20T02:11:55;5.85;;;2.50;;
55186;SDS011;55457;52.002;5.464;2022-10-20T02:14:26;5.45;;;2.20;;
55186;SDS011;55457;52.002;5.464;2022-10-20T02:16:59;6.28;;;2.03;;
55186;SDS011;55457;52.002;5.464;2022-10-20T02:19:31;2.67;;;2.10;;
55186;SDS011;55457;52.002;5.464;2022-10-20T02:22:00;5.53;;;2.93;;
55186;SDS011;55457;52.002;5.464;2022-10-20T02:24:28;5.43;;;2.28;;
55186;SDS011;55457;52.002;5.464;2022-10-20T02:27:01;3.38;;;1.95;;
55186;SDS011;55457;52.002;5.464;2022-10-20T02:29:33;5.10;;;1.88;;
55186;SDS011;55457;52.002;5.464;2022-10-20T02:32:02;4.82;;;1.83;;
55186;SDS011;55457;52.002;5.464;2022-10-20T02:34:28;4.97;;;2.30;;
55186;SDS011;55457;52.002;5.464;2022-10-20T02:36:54;5.53;;;2.80;;
55186;SDS011;55457;52.002;5.464;2022-10-20T02:39:22;6.10;;;2.05;;
55186;SDS011;55457;52.002;5.464;2022-10-20T02:41:47;7.22;;;2.28;;
55186;SDS011;55457;52.002;5.464;2022-10-20T02:44:13;9.43;;;3.22;;
55186;SDS011;55457;52.002;5.464;2022-10-20T02:46:38;7.30;;;2.40;;
55186;SDS011;55457;52.002;5.464;2022-10-20T02:49:03;6.82;;;2.35;;
55186;SDS011;55457;52.002;5.464;2022-10-20T02:51:29;4.78;;;2.17;;
55186;SDS011;55457;52.002;5.464;2022-10-20T02:53:54;3.72;;;1.80;;
55186;SDS011;55457;52.002;5.464;2022-10-20T02:56:20;3.47;;;2.25;;
55186;SDS011;55457;52.002;5.464;2022-10-20T02:58:46;8.00;;;2.83;;
55186;SDS011;55457;52.002;5.464;2022-10-20T03:01:12;3.65;;;2.58;;
55186;SDS011;55457;52.002;5.464;2022-10-20T03:03:37;5.82;;;2.75;;
55186;SDS011;55457;52.002;5.464;2022-10-20T03:06:06;6.18;;;2.33;;
55186;SDS011;55457;52.002;5.464;2022-10-20T03:08:35;3.80;;;2.35;;
55186;SDS011;55457;52.002;5.464;2022-10-20T03:11:01;7.57;;;2.17;;
55186;SDS011;55457;52.002;5.464;2022-10-20T03:13:26;8.77;;;2.50;;
55186;SDS011;55457;52.002;5.464;2022-10-20T03:15:52;2.92;;;1.85;;
55186;SDS011;55457;52.002;5.464;2022-10-20T03:18:17;5.80;;;2.20;;
55186;SDS011;55457;52.002;5.464;2022-10-20T03:20:43;6.63;;;2.78;;
55186;SDS011;55457;52.002;5.464;2022-10-20T03:23:08;3.47;;;2.42;;
55186;SDS011;55457;52.002;5.464;2022-10-20T03:25:33;4.95;;;2.50;;
55186;SDS011;55457;52.002;5.464;2022-10-20T03:27:59;10.07;;;2.90;;
55186;SDS011;55457;52.002;5.464;2022-10-20T03:30:24;4.90;;;2.83;;
55186;SDS011;55457;52.002;5.464;2022-10-20T03:32:49;7.90;;;2.47;;
55186;SDS011;55457;52.002;5.464;2022-10-20T03:35:15;4.70;;;2.20;;
55186;SDS011;55457;52.002;5.464;2022-10-20T03:37:40;4.20;;;2.75;;
55186;SDS011;55457;52.002;5.464;2022-10-20T03:40:06;6.20;;;2.85;;
55186;SDS011;55457;52.002;5.464;2022-10-20T03:42:31;3.58;;;2.60;;
55186;SDS011;55457;52.002;5.464;2022-10-20T03:44:57;5.85;;;2.50;;
55186;SDS011;55457;52.002;5.464;2022-10-20T03:47:22;3.88;;;2.42;;
55186;SDS011;55457;52.002;5.464;2022-10-20T03:49:47;7.43;;;2.75;;
55186;SDS011;55457;52.002;5.464;2022-10-20T03:52:13;6.57;;;2.65;;
55186;SDS011;55457;52.002;5.464;2022-10-20T03:54:38;8.65;;;2.97;;
55186;SDS011;55457;52.002;5.464;2022-10-20T03:57:04;3.72;;;2.80;;
55186;SDS011;55457;52.002;5.464;2022-10-20T03:59:30;6.28;;;2.80;;
55186;SDS011;55457;52.002;5.464;2022-10-20T04:01:56;3.78;;;2.50;;
55186;SDS011;55457;52.002;5.464;2022-10-20T04:04:21;5.95;;;2.30;;
55186;SDS011;55457;52.002;5.464;2022-10-20T04:06:46;5.80;;;3.10;;
55186;SDS011;55457;52.002;5.464;2022-10-20T04:09:12;7.55;;;2.72;;
55186;SDS011;55457;52.002;5.464;2022-10-20T04:11:37;5.68;;;2.55;;
55186;SDS011;55457;52.002;5.464;2022-10-20T04:14:02;3.33;;;2.35;;
55186;SDS011;55457;52.002;5.464;2022-10-20T04:16:28;3.00;;;2.30;;
55186;SDS011;55457;52.002;5.464;2022-10-20T04:18:54;3.15;;;2.20;;
55186;SDS011;55457;52.002;5.464;2022-10-20T04:21:20;2.80;;;2.25;;
55186;SDS011;55457;52.002;5.464;2022-10-20T04:23:45;5.10;;;2.63;;
55186;SDS011;55457;52.002;5.464;2022-10-20T04:26:11;3.45;;;2.58;;
55186;SDS011;55457;52.002;5.464;2022-10-20T04:28:38;3.63;;;2.65;;
55186;SDS011;55457;52.002;5.464;2022-10-20T04:31:04;3.38;;;2.38;;
55186;SDS011;55457;52.002;5.464;2022-10-20T04:33:30;5.50;;;2.63;;
55186;SDS011;55457;52.002;5.464;2022-10-20T04:35:59;4.40;;;2.55;;
55186;SDS011;55457;52.002;5.464;2022-10-20T04:38:25;6.32;;;2.67;;
55186;SDS011;55457;52.002;5.464;2022-10-20T04:40:54;6.72;;;2.53;;
55186;SDS011;55457;52.002;5.464;2022-10-20T04:43:21;4.90;;;2.53;;
55186;SDS011;55457;52.002;5.464;2022-10-20T04:45:46;5.25;;;2.72;;
55186;SDS011;55457;52.002;5.464;2022-10-20T04:48:12;4.15;;;2.90;;
55186;SDS011;55457;52.002;5.464;2022-10-20T04:50:37;3.40;;;2.58;;
55186;SDS011;55457;52.002;5.464;2022-10-20T04:53:03;6.82;;;2.70;;
55186;SDS011;55457;52.002;5.464;2022-10-20T04:55:28;4.22;;;2.33;;
55186;SDS011;55457;52.002;5.464;2022-10-20T04:57:54;5.68;;;2.95;;
55186;SDS011;55457;52.002;5.464;2022-10-20T05:00:19;6.13;;;3.35;;
55186;SDS011;55457;52.002;5.464;2022-10-20T05:02:44;4.82;;;2.85;;
55186;SDS011;55457;52.002;5.464;2022-10-20T05:05:10;5.55;;;3.28;;
55186;SDS011;55457;52.002;5.464;2022-10-20T05:07:35;4.95;;;2.50;;
55186;SDS011;55457;52.002;5.464;2022-10-20T05:10:00;5.80;;;2.83;;
55186;SDS011;55457;52.002;5.464;2022-10-20T05:12:25;4.63;;;2.90;;
55186;SDS011;55457;52.002;5.464;2022-10-20T05:14:52;9.60;;;2.80;;
55186;SDS011;55457;52.002;5.464;2022-10-20T05:17:17;4.65;;;2.65;;
55186;SDS011;55457;52.002;5.464;2022-10-20T05:19:43;4.50;;;2.80;;
55186;SDS011;55457;52.002;5.464;2022-10-20T05:22:09;5.13;;;3.17;;
55186;SDS011;55457;52.002;5.464;2022-10-20T05:24:35;4.35;;;2.38;;
55186;SDS011;55457;52.002;5.464;2022-10-20T05:27:00;5.78;;;4.35;;
55186;SDS011;55457;52.002;5.464;2022-10-20T05:29:25;5.00;;;2.80;;
55186;SDS011;55457;52.002;5.464;2022-10-20T05:31:51;4.40;;;2.83;;
55186;SDS011;55457;52.002;5.464;2022-10-20T05:34:16;6.00;;;3.03;;
55186;SDS011;55457;52.002;5.464;2022-10-20T05:36:41;5.07;;;3.22;;
55186;SDS011;55457;52.002;5.464;2022-10-20T05:39:07;5.18;;;2.78;;
55186;SDS011;55457;52.002;5.464;2022-10-20T05:41:33;6.60;;;3.28;;
55186;SDS011;55457;52.002;5.464;2022-10-20T05:43:59;6.43;;;2.60;;
55186;SDS011;55457;52.002;5.464;2022-10-20T05:46:27;6.53;;;2.92;;
55186;SDS011;55457;52.002;5.464;2022-10-20T05:48:55;8.85;;;3.30;;
55186;SDS011;55457;52.002;5.464;2022-10-20T05:51:21;7.47;;;2.67;;
55186;SDS011;55457;52.002;5.464;2022-10-20T05:53:49;3.20;;;2.22;;
55186;SDS011;55457;52.002;5.464;2022-10-20T05:56:16;5.57;;;2.97;;
55186;SDS011;55457;52.002;5.464;2022-10-20T05:58:42;3.10;;;2.72;;
55186;SDS011;55457;52.002;5.464;2022-10-20T06:03:35;5.53;;;2.70;;
55186;SDS011;55457;52.002;5.464;2022-10-20T06:06:01;9.43;;;3.28;;
55186;SDS011;55457;52.002;5.464;2022-10-20T06:08:28;4.22;;;2.75;;
55186;SDS011;55457;52.002;5.464;2022-10-20T06:10:55;5.55;;;3.30;;
55186;SDS011;55457;52.002;5.464;2022-10-20T06:13:20;4.57;;;2.83;;
55186;SDS011;55457;52.002;5.464;2022-10-20T06:15:45;4.78;;;2.83;;
55186;SDS011;55457;52.002;5.464;2022-10-20T06:18:13;6.00;;;3.03;;
55186;SDS011;55457;52.002;5.464;2022-10-20T06:20:38;5.55;;;2.97;;
55186;SDS011;55457;52.002;5.464;2022-10-20T06:23:04;8.02;;;3.10;;
55186;SDS011;55457;52.002;5.464;2022-10-20T06:25:29;5.07;;;2.88;;
55186;SDS011;55457;52.002;5.464;2022-10-20T06:27:54;5.70;;;2.80;;
55186;SDS011;55457;52.002;5.464;2022-10-20T06:30:19;5.30;;;3.58;;
55186;SDS011;55457;52.002;5.464;2022-10-20T06:32:45;6.90;;;3.10;;
55186;SDS011;55457;52.002;5.464;2022-10-20T06:35:10;7.22;;;3.22;;
55186;SDS011;55457;52.002;5.464;2022-10-20T06:37:35;9.75;;;3.30;;
55186;SDS011;55457;52.002;5.464;2022-10-20T06:40:01;5.78;;;3.33;;
55186;SDS011;55457;52.002;5.464;2022-10-20T06:42:26;6.05;;;3.05;;
55186;SDS011;55457;52.002;5.464;2022-10-20T06:44:52;6.40;;;2.95;;
55186;SDS011;55457;52.002;5.464;2022-10-20T06:47:19;7.97;;;2.60;;
55186;SDS011;55457;52.002;5.464;2022-10-20T06:49:46;5.03;;;3.20;;
55186;SDS011;55457;52.002;5.464;2022-10-20T06:52:12;5.60;;;3.20;;
55186;SDS011;55457;52.002;5.464;2022-10-20T06:54:38;6.97;;;3.60;;
55186;SDS011;55457;52.002;5.464;2022-10-20T06:57:03;8.40;;;3.40;;
55186;SDS011;55457;52.002;5.464;2022-10-20T06:59:28;4.28;;;2.95;;
55186;SDS011;55457;52.002;5.464;2022-10-20T07:01:54;3.80;;;2.88;;
55186;SDS011;55457;52.002;5.464;2022-10-20T07:04:19;4.90;;;3.05;;
55186;SDS011;55457;52.002;5.464;2022-10-20T07:06:44;4.38;;;2.85;;
55186;SDS011;55457;52.002;5.464;2022-10-20T07:09:12;7.60;;;3.00;;
55186;SDS011;55457;52.002;5.464;2022-10-20T07:11:40;3.75;;;3.08;;
55186;SDS011;55457;52.002;5.464;2022-10-20T07:14:06;4.28;;;3.03;;
55186;SDS011;55457;52.002;5.464;2022-10-20T07:16:32;3.90;;;2.78;;
55186;SDS011;55457;52.002;5.464;2022-10-20T07:18:59;4.60;;;3.35;;
55186;SDS011;55457;52.002;5.464;2022-10-20T07:21:27;3.90;;;3.08;;
55186;SDS011;55457;52.002;5.464;2022-10-20T07:23:53;4.05;;;3.17;;
55186;SDS011;55457;52.002;5.464;2022-10-20T07:28:50;5.90;;;3.35;;
55186;SDS011;55457;52.002;5.464;2022-10-20T07:31:18;4.63;;;3.22;;
55186;SDS011;55457;52.002;5.464;2022-10-20T07:33:45;7.20;;;3.63;;
55186;SDS011;55457;52.002;5.464;2022-10-20T07:38:38;4.38;;;2.75;;
55186;SDS011;55457;52.002;5.464;2022-10-20T07:41:03;5.75;;;3.28;;
55186;SDS011;55457;52.002;5.464;2022-10-20T07:43:28;6.13;;;3.08;;
55186;SDS011;55457;52.002;5.464;2022-10-20T07:45:54;4.13;;;2.90;;
55186;SDS011;55457;52.002;5.464;2022-10-20T07:48:19;5.28;;;3.22;;
55186;SDS011;55457;52.002;5.464;2022-10-20T07:50:44;4.65;;;3.20;;
55186;SDS011;55457;52.002;5.464;2022-10-20T07:53:10;5.88;;;2.78;;
55186;SDS011;55457;52.002;5.464;2022-10-20T07:55:35;6.43;;;2.97;;
55186;SDS011;55457;52.002;5.464;2022-10-20T07:58:00;5.07;;;2.90;;
55186;SDS011;55457;52.002;5.464;2022-10-20T08:00:26;3.25;;;2.95;;
55186;SDS011;55457;52.002;5.464;2022-10-20T08:02:51;3.55;;;2.95;;
55186;SDS011;55457;52.002;5.464;2022-10-20T08:05:16;6.32;;;2.90;;
55186;SDS011;55457;52.002;5.464;2022-10-20T08:07:42;6.15;;;3.00;;
55186;SDS011;55457;52.002;5.464;2022-10-20T08:10:07;4.45;;;3.03;;
55186;SDS011;55457;52.002;5.464;2022-10-20T08:12:33;4.97;;;3.40;;
55186;SDS011;55457;52.002;5.464;2022-10-20T08:14:59;5.80;;;2.90;;
55186;SDS011;55457;52.002;5.464;2022-10-20T08:17:24;6.50;;;3.35;;
55186;SDS011;55457;52.002;5.464;2022-10-20T08:19:50;6.55;;;2.97;;
55186;SDS011;55457;52.002;5.464;2022-10-20T08:22:15;6.05;;;3.15;;
55186;SDS011;55457;52.002;5.464;2022-10-20T08:24:43;5.53;;;3.28;;
55186;SDS011;55457;52.002;5.464;2022-10-20T08:27:08;4.53;;;3.20;;
55186;SDS011;55457;52.002;5.464;2022-10-20T08:29:34;5.70;;;3.15;;
55186;SDS011;55457;52.002;5.464;2022-10-20T08:32:00;5.55;;;3.20;;
55186;SDS011;55457;52.002;5.464;2022-10-20T08:34:26;5.82;;;2.97;;
55186;SDS011;55457;52.002;5.464;2022-10-20T08:36:51;5.38;;;3.45;;
55186;SDS011;55457;52.002;5.464;2022-10-20T08:39:17;8.02;;;4.20;;
55186;SDS011;55457;52.002;5.464;2022-10-20T08:41:43;8.88;;;3.50;;
55186;SDS011;55457;52.002;5.464;2022-10-20T08:44:13;5.65;;;4.00;;
55186;SDS011;55457;52.002;5.464;2022-10-20T08:46:43;12.10;;;4.13;;
55186;SDS011;55457;52.002;5.464;2022-10-20T08:49:28;9.35;;;3.60;;
55186;SDS011;55457;52.002;5.464;2022-10-20T08:51:56;9.10;;;3.35;;
55186;SDS011;55457;52.002;5.464;2022-10-20T08:54:22;9.55;;;3.80;;
55186;SDS011;55457;52.002;5.464;2022-10-20T08:56:48;10.32;;;4.18;;
55186;SDS011;55457;52.002;5.464;2022-10-20T08:59:27;4.55;;;2.90;;
55186;SDS011;55457;52.002;5.464;2022-10-20T09:01:55;8.32;;;3.42;;
55186;SDS011;55457;52.002;5.464;2022-10-20T09:04:32;6.97;;;4.07;;
55186;SDS011;55457;52.002;5.464;2022-10-20T09:07:17;10.20;;;3.95;;
55186;SDS011;55457;52.002;5.464;2022-10-20T09:09:51;6.32;;;3.92;;
55186;SDS011;55457;52.002;5.464;2022-10-20T09:12:22;6.05;;;4.05;;
55186;SDS011;55457;52.002;5.464;2022-10-20T09:14:48;4.57;;;3.13;;
55186;SDS011;55457;52.002;5.464;2022-10-20T09:17:14;13.23;;;4.10;;
55186;SDS011;55457;52.002;5.464;2022-10-20T09:19:45;5.35;;;3.70;;
55186;SDS011;55457;52.002;5.464;2022-10-20T09:22:16;5.85;;;3.05;;
55186;SDS011;55457;52.002;5.464;2022-10-20T09:24:44;6.05;;;3.63;;
55186;SDS011;55457;52.002;5.464;2022-10-20T09:29:41;9.05;;;4.25;;
55186;SDS011;55457;52.002;5.464;2022-10-20T09:32:15;7.03;;;3.92;;
55186;SDS011;55457;52.002;5.464;2022-10-20T09:37:43;5.32;;;3.78;;
55186;SDS011;55457;52.002;5.464;2022-10-20T09:40:15;9.63;;;4.15;;
55186;SDS011;55457;52.002;5.464;2022-10-20T09:42:50;9.93;;;3.80;;
55186;SDS011;55457;52.002;5.464;2022-10-20T09:45:20;8.32;;;4.20;;
55186;SDS011;55457;52.002;5.464;2022-10-20T09:47:49;6.43;;;3.63;;
55186;SDS011;55457;52.002;5.464;2022-10-20T09:50:25;6.47;;;3.60;;
55186;SDS011;55457;52.002;5.464;2022-10-20T09:52:53;5.25;;;4.00;;
55186;SDS011;55457;52.002;5.464;2022-10-20T09:55:25;4.95;;;3.67;;
55186;SDS011;55457;52.002;5.464;2022-10-20T09:57:53;6.05;;;4.00;;
55186;SDS011;55457;52.002;5.464;2022-10-20T10:00:30;7.70;;;4.22;;
55186;SDS011;55457;52.002;5.464;2022-10-20T10:05:51;6.38;;;3.90;;
55186;SDS011;55457;52.002;5.464;2022-10-20T10:08:16;9.35;;;3.72;;
55186;SDS011;55457;52.002;5.464;2022-10-20T10:10:44;6.07;;;3.95;;
55186;SDS011;55457;52.002;5.464;2022-10-20T10:13:44;4.90;;;3.67;;
55186;SDS011;55457;52.002;5.464;2022-10-20T10:16:06;6.00;;;4.78;;
55186;SDS011;55457;52.002;5.464;2022-10-20T10:18:34;5.88;;;3.85;;
55186;SDS011;55457;52.002;5.464;2022-10-20T10:21:02;5.47;;;3.70;;
55186;SDS011;55457;52.002;5.464;2022-10-20T10:23:34;4.43;;;3.50;;
55186;SDS011;55457;52.002;5.464;2022-10-20T10:26:31;8.30;;;4.53;;
55186;SDS011;55457;52.002;5.464;2022-10-20T10:32:01;6.63;;;4.40;;
55186;SDS011;55457;52.002;5.464;2022-10-20T10:37:27;8.32;;;4.40;;
55186;SDS011;55457;52.002;5.464;2022-10-20T10:39:54;5.30;;;4.13;;
55186;SDS011;55457;52.002;5.464;2022-10-20T10:42:25;6.60;;;4.38;;
55186;SDS011;55457;52.002;5.464;2022-10-20T10:45:27;6.82;;;3.88;;
55186;SDS011;55457;52.002;5.464;2022-10-20T10:48:10;5.60;;;4.13;;
55186;SDS011;55457;52.002;5.464;2022-10-20T10:56:50;6.22;;;4.70;;
55186;SDS011;55457;52.002;5.464;2022-10-20T10:59:21;5.78;;;3.38;;
55186;SDS011;55457;52.002;5.464;2022-10-20T11:12:35;7.57;;;3.90;;
55186;SDS011;55457;52.002;5.464;2022-10-20T11:21:04;5.20;;;4.20;;
55186;SDS011;55457;52.002;5.464;2022-10-20T11:26:52;5.77;;;4.00;;
55186;SDS011;55457;52.002;5.464;2022-10-20T11:37:34;6.88;;;4.13;;
55186;SDS011;55457;52.002;5.464;2022-10-20T11:42:42;5.35;;;4.00;;
55186;SDS011;55457;52.002;5.464;2022-10-20T11:47:49;5.97;;;3.63;;
55186;SDS011;55457;52.002;5.464;2022-10-20T11:50:21;5.93;;;4.35;;
55186;SDS011;55457;52.002;5.464;2022-10-20T11:55:58;6.33;;;4.60;;
55186;SDS011;55457;52.002;5.464;2022-10-20T12:06:56;7.55;;;4.60;;
55186;SDS011;55457;52.002;5.464;2022-10-20T12:09:58;4.97;;;4.43;;
55186;SDS011;55457;52.002;5.464;2022-10-20T12:15:16;8.55;;;4.93;;
55186;SDS011;55457;52.002;5.464;2022-10-20T12:17:47;4.60;;;3.65;;
55186;SDS011;55457;52.002;5.464;2022-10-20T12:22:46;4.67;;;3.97;;
55186;SDS011;55457;52.002;5.464;2022-10-20T12:25:21;7.65;;;4.40;;
55186;SDS011;55457;52.002;5.464;2022-10-20T12:33:41;6.50;;;4.68;;
55186;SDS011;55457;52.002;5.464;2022-10-20T12:38:41;5.78;;;4.30;;
55186;SDS011;55457;52.002;5.464;2022-10-20T12:41:08;6.47;;;3.95;;
55186;SDS011;55457;52.002;5.464;2022-10-20T12:43:48;6.50;;;4.28;;
55186;SDS011;55457;52.002;5.464;2022-10-20T12:46:21;5.55;;;4.07;;
55186;SDS011;55457;52.002;5.464;2022-10-20T12:48:50;6.43;;;4.70;;
55186;SDS011;55457;52.002;5.464;2022-10-20T12:51:45;5.25;;;4.32;;
55186;SDS011;55457;52.002;5.464;2022-10-20T13:00:03;6.63;;;4.53;;
55186;SDS011;55457;52.002;5.464;2022-10-20T13:02:32;6.32;;;4.38;;
55186;SDS011;55457;52.002;5.464;2022-10-20T13:15:25;6.28;;;4.53;;
55186;SDS011;55457;52.002;5.464;2022-10-20T13:18:02;4.93;;;4.18;;
55186;SDS011;55457;52.002;5.464;2022-10-20T13:21:21;6.00;;;4.70;;
55186;SDS011;55457;52.002;5.464;2022-10-20T13:24:27;7.53;;;4.93;;
55186;SDS011;55457;52.002;5.464;2022-10-20T13:26:51;5.15;;;4.43;;
55186;SDS011;55457;52.002;5.464;2022-10-20T13:29:25;4.30;;;3.78;;
55186;SDS011;55457;52.002;5.464;2022-10-20T13:34:44;6.38;;;4.75;;
55186;SDS011;55457;52.002;5.464;2022-10-20T13:37:25;7.18;;;5.18;;
55186;SDS011;55457;52.002;5.464;2022-10-20T13:43:06;6.95;;;4.78;;
55186;SDS011;55457;52.002;5.464;2022-10-20T13:48:29;5.13;;;4.18;;
55186;SDS011;55457;52.002;5.464;2022-10-20T13:51:12;5.97;;;4.55;;
55186;SDS011;55457;52.002;5.464;2022-10-20T13:53:43;6.47;;;4.35;;
55186;SDS011;55457;52.002;5.464;2022-10-20T13:58:39;5.93;;;4.13;;
55186;SDS011;55457;52.002;5.464;2022-10-20T14:03:41;5.78;;;4.78;;
55186;SDS011;55457;52.002;5.464;2022-10-20T14:06:27;6.80;;;4.35;;
55186;SDS011;55457;52.002;5.464;2022-10-20T14:08:54;7.53;;;4.40;;
55186;SDS011;55457;52.002;5.464;2022-10-20T14:11:22;4.80;;;4.20;;
55186;SDS011;55457;52.002;5.464;2022-10-20T14:13:48;4.97;;;4.47;;
55186;SDS011;55457;52.002;5.464;2022-10-20T14:16:15;7.35;;;4.43;;
55186;SDS011;55457;52.002;5.464;2022-10-20T14:18:44;6.40;;;4.20;;
55186;SDS011;55457;52.002;5.464;2022-10-20T14:21:24;9.10;;;4.75;;
55186;SDS011;55457;52.002;5.464;2022-10-20T14:23:53;7.43;;;5.47;;
55186;SDS011;55457;52.002;5.464;2022-10-20T14:26:21;6.68;;;4.50;;
55186;SDS011;55457;52.002;5.464;2022-10-20T14:28:48;8.07;;;5.50;;
55186;SDS011;55457;52.002;5.464;2022-10-20T14:31:16;6.43;;;4.75;;
55186;SDS011;55457;52.002;5.464;2022-10-20T14:33:45;7.18;;;5.63;;
55186;SDS011;55457;52.002;5.464;2022-10-20T14:36:33;6.07;;;4.50;;
55186;SDS011;55457;52.002;5.464;2022-10-20T14:38:58;7.10;;;5.15;;
55186;SDS011;55457;52.002;5.464;2022-10-20T14:41:28;6.18;;;4.95;;
55186;SDS011;55457;52.002;5.464;2022-10-20T14:43:56;6.55;;;4.95;;
55186;SDS011;55457;52.002;5.464;2022-10-20T14:46:27;7.22;;;4.95;;
55186;SDS011;55457;52.002;5.464;2022-10-20T14:48:53;5.85;;;4.82;;
55186;SDS011;55457;52.002;5.464;2022-10-20T14:51:39;6.38;;;4.97;;
55186;SDS011;55457;52.002;5.464;2022-10-20T14:56:44;5.35;;;4.60;;
55186;SDS011;55457;52.002;5.464;2022-10-20T14:59:13;6.15;;;4.80;;
55186;SDS011;55457;52.002;5.464;2022-10-20T15:01:40;6.45;;;5.05;;
55186;SDS011;55457;52.002;5.464;2022-10-20T15:04:14;5.78;;;4.68;;
55186;SDS011;55457;52.002;5.464;2022-10-20T15:06:45;6.53;;;4.50;;
55186;SDS011;55457;52.002;5.464;2022-10-20T15:09:25;5.80;;;4.45;;
55186;SDS011;55457;52.002;5.464;2022-10-20T15:11:53;6.78;;;5.00;;
55186;SDS011;55457;52.002;5.464;2022-10-20T15:14:19;6.95;;;5.18;;
55186;SDS011;55457;52.002;5.464;2022-10-20T15:16:46;6.70;;;5.60;;
55186;SDS011;55457;52.002;5.464;2022-10-20T15:22:01;6.30;;;4.45;;
55186;SDS011;55457;52.002;5.464;2022-10-20T15:24:33;5.55;;;4.65;;
55186;SDS011;55457;52.002;5.464;2022-10-20T15:26:59;5.45;;;4.82;;
55186;SDS011;55457;52.002;5.464;2022-10-20T15:29:26;6.63;;;5.35;;
55186;SDS011;55457;52.002;5.464;2022-10-20T15:31:53;6.28;;;4.57;;
55186;SDS011;55457;52.002;5.464;2022-10-20T15:34:18;7.25;;;5.45;;
55186;SDS011;55457;52.002;5.464;2022-10-20T15:36:44;8.75;;;6.25;;
55186;SDS011;55457;52.002;5.464;2022-10-20T15:39:10;7.15;;;5.38;;
55186;SDS011;55457;52.002;5.464;2022-10-20T15:41:36;6.93;;;5.22;;
55186;SDS011;55457;52.002;5.464;2022-10-20T15:44:06;6.38;;;4.63;;
55186;SDS011;55457;52.002;5.464;2022-10-20T15:46:43;9.48;;;5.40;;
55186;SDS011;55457;52.002;5.464;2022-10-20T15:49:09;7.32;;;5.60;;
55186;SDS011;55457;52.002;5.464;2022-10-20T15:51:36;5.57;;;4.57;;
55186;SDS011;55457;52.002;5.464;2022-10-20T15:54:04;13.35;;;5.70;;
55186;SDS011;55457;52.002;5.464;2022-10-20T15:56:30;7.45;;;4.78;;
55186;SDS011;55457;52.002;5.464;2022-10-20T15:58:56;10.73;;;4.97;;
55186;SDS011;55457;52.002;5.464;2022-10-20T16:01:22;8.25;;;6.00;;
55186;SDS011;55457;52.002;5.464;2022-10-20T16:03:48;9.45;;;5.57;;
55186;SDS011;55457;52.002;5.464;2022-10-20T16:06:14;7.55;;;5.65;;
55186;SDS011;55457;52.002;5.464;2022-10-20T16:08:41;8.40;;;5.80;;
55186;SDS011;55457;52.002;5.464;2022-10-20T16:11:08;7.20;;;5.40;;
55186;SDS011;55457;52.002;5.464;2022-10-20T16:13:34;8.00;;;5.60;;
55186;SDS011;55457;52.002;5.464;2022-10-20T16:16:02;10.82;;;5.90;;
55186;SDS011;55457;52.002;5.464;2022-10-20T16:18:28;8.23;;;5.68;;
55186;SDS011;55457;52.002;5.464;2022-10-20T16:20:56;8.55;;;5.95;;
55186;SDS011;55457;52.002;5.464;2022-10-20T16:23:21;7.38;;;5.47;;
55186;SDS011;55457;52.002;5.464;2022-10-20T16:25:47;9.43;;;5.50;;
55186;SDS011;55457;52.002;5.464;2022-10-20T16:28:12;7.22;;;5.38;;
55186;SDS011;55457;52.002;5.464;2022-10-20T16:30:37;9.55;;;5.80;;
55186;SDS011;55457;52.002;5.464;2022-10-20T16:33:02;11.48;;;5.82;;
55186;SDS011;55457;52.002;5.464;2022-10-20T16:35:28;11.93;;;5.80;;
55186;SDS011;55457;52.002;5.464;2022-10-20T16:37:53;14.77;;;6.70;;
55186;SDS011;55457;52.002;5.464;2022-10-20T16:40:18;8.75;;;6.20;;
55186;SDS011;55457;52.002;5.464;2022-10-20T16:42:44;13.18;;;6.70;;
55186;SDS011;55457;52.002;5.464;2022-10-20T16:45:09;14.05;;;7.85;;
55186;SDS011;55457;52.002;5.464;2022-10-20T16:47:35;9.63;;;6.35;;
55186;SDS011;55457;52.002;5.464;2022-10-20T16:50:00;11.00;;;5.90;;
55186;SDS011;55457;52.002;5.464;2022-10-20T16:52:25;10.50;;;7.03;;
55186;SDS011;55457;52.002;5.464;2022-10-20T16:54:51;11.73;;;6.50;;
55186;SDS011;55457;52.002;5.464;2022-10-20T16:57:16;11.10;;;6.25;;
55186;SDS011;55457;52.002;5.464;2022-10-20T16:59:41;10.13;;;5.40;;
55186;SDS011;55457;52.002;5.464;2022-10-20T17:02:10;10.90;;;5.68;;
55186;SDS011;55457;52.002;5.464;2022-10-20T17:04:36;11.43;;;6.43;;
55186;SDS011;55457;52.002;5.464;2022-10-20T17:07:02;8.43;;;6.47;;
55186;SDS011;55457;52.002;5.464;2022-10-20T17:09:27;10.98;;;6.90;;
55186;SDS011;55457;52.002;5.464;2022-10-20T17:11:54;11.70;;;5.72;;
55186;SDS011;55457;52.002;5.464;2022-10-20T17:14:19;9.40;;;6.70;;
55186;SDS011;55457;52.002;5.464;2022-10-20T17:16:45;8.27;;;6.22;;
55186;SDS011;55457;52.002;5.464;2022-10-20T17:19:11;10.32;;;6.70;;
55186;SDS011;55457;52.002;5.464;2022-10-20T17:21:36;11.07;;;6.53;;